Time;durP1;ratioP1;P1;durP2;ratioP2;P2;SDS_P1;SDS_P2;PMS_P1;PMS_P2;Temp;Humidity;BMP_temperature;BMP_pressure;BME280_temperature;BME280_humidity;BME280_pressure;Samples;Min_cycle;Max_cycle;Signal;HPM_P1;HPM_P2
2024/01/25 00:01:11;;;;;;;;;2.67;2.00;;;;;12.55;87.12;102536.69;5118362;27;45293;-81
2024/01/25 00:03:36;;;;;;;;;6.67;5.00;;;;;12.51;87.78;102535.94;5119487;27;45683;-80
2024/01/25 00:06:02;;;;;;;;;6.67;6.67;;;;;12.48;87.90;102528.00;5118606;27;45235;-78
2024/01/25 00:08:27;;;;;;;;;4.00;4.00;;;;;12.49;88.27;102531.53;5119185;27;45332;-78
2024/01/25 00:10:53;;;;;;;;;4.00;4.00;;;;;12.38;89.27;102527.44;5119156;27;45364;-79
2024/01/25 00:13:18;;;;;;;;;9.67;7.00;;;;;12.37;89.78;102517.69;5117191;27;46321;-80
2024/01/25 00:15:43;;;;;;;;;8.33;8.33;;;;;12.39;89.82;102515.84;5119532;27;45453;-80
2024/01/25 00:18:09;;;;;;;;;10.00;6.00;;;;;12.40;89.67;102524.72;5125825;27;46100;-79
2024/01/25 00:20:34;;;;;;;;;9.00;6.00;;;;;12.35;89.74;102513.31;5139656;27;45427;-78
2024/01/25 00:22:59;;;;;;;;;9.33;5.00;;;;;12.31;89.01;102512.56;5121831;27;45305;-80
2024/01/25 00:25:25;;;;;;;;;6.67;6.67;;;;;12.27;88.82;102505.59;5117966;27;45558;-80
2024/01/25 00:27:52;;;;;;;;;11.00;7.33;;;;;12.28;88.54;102501.13;5118560;27;45411;-81
2024/01/25 00:30:17;;;;;;;;;7.67;7.67;;;;;12.31;88.38;102501.88;5130000;27;45344;-80
2024/01/25 00:32:42;;;;;;;;;5.67;5.00;;;;;12.17;88.95;102496.13;5124525;27;45845;-80
2024/01/25 00:35:10;;;;;;;;;13.67;10.00;;;;;12.15;89.13;102500.63;5118996;27;45260;-79
2024/01/25 00:37:36;;;;;;;;;10.00;6.00;;;;;12.18;88.69;102505.88;5118519;27;46974;-80
2024/01/25 00:40:03;;;;;;;;;7.00;4.67;;;;;12.18;88.65;102503.19;5117767;27;45735;-80
2024/01/25 00:42:29;;;;;;;;;4.00;3.33;;;;;12.24;87.88;102500.34;5118149;27;45323;-80
2024/01/25 00:44:55;;;;;;;;;6.67;5.33;;;;;12.23;87.82;102493.25;5118757;27;45334;-78
2024/01/25 00:47:20;;;;;;;;;8.33;5.67;;;;;12.25;87.68;102491.44;5118191;27;46114;-79
2024/01/25 00:49:46;;;;;;;;;4.67;4.67;;;;;12.30;87.35;102497.47;5117757;27;45736;-79
2024/01/25 00:52:12;;;;;;;;;3.00;3.00;;;;;12.29;86.61;102493.06;5117444;27;45298;-80
2024/01/25 00:54:37;;;;;;;;;6.00;4.00;;;;;12.26;87.16;102486.97;5118031;27;45306;-79
2024/01/25 00:57:03;;;;;;;;;2.67;2.67;;;;;12.18;86.22;102481.88;5117899;27;46008;-79
2024/01/25 00:59:28;;;;;;;;;5.00;3.00;;;;;12.17;86.53;102492.59;5118161;27;45424;-79
2024/01/25 01:01:55;;;;;;;;;1.33;0.00;;;;;12.16;86.86;102496.19;5118544;27;45797;-80
2024/01/25 01:04:21;;;;;;;;;9.67;3.67;;;;;12.11;87.00;102493.66;5118497;27;45283;-79
2024/01/25 01:06:47;;;;;;;;;15.00;3.67;;;;;12.08;86.83;102497.28;5099134;27;47712;-79
2024/01/25 01:09:13;;;;;;;;;5.67;4.00;;;;;12.09;86.46;102495.50;5117483;27;45334;-80
2024/01/25 01:11:38;;;;;;;;;6.67;3.67;;;;;12.16;86.81;102485.50;5118269;27;45329;-80
2024/01/25 01:14:04;;;;;;;;;5.00;4.67;;;;;12.16;86.66;102491.72;5118355;27;45233;-79
2024/01/25 01:16:32;;;;;;;;;10.67;5.00;;;;;12.16;86.88;102481.03;5117774;27;45441;-80
2024/01/25 01:19:05;;;;;;;;;3.67;3.67;;;;;12.14;87.29;102482.03;5124607;27;45507;-78
2024/01/25 01:21:30;;;;;;;;;6.00;4.00;;;;;12.07;87.66;102468.00;5119481;27;45334;-81
2024/01/25 01:23:55;;;;;;;;;4.33;3.33;;;;;12.08;86.65;102472.41;5138816;27;45761;-80
2024/01/25 01:26:21;;;;;;;;;8.67;5.00;;;;;12.10;87.08;102471.44;5138752;27;46106;-81
2024/01/25 01:28:46;;;;;;;;;9.00;5.00;;;;;12.04;87.32;102466.31;5138838;27;45292;-80
2024/01/25 01:31:11;;;;;;;;;6.67;5.00;;;;;12.01;87.38;102468.22;5124234;27;52473;-81
2024/01/25 01:33:36;;;;;;;;;6.67;4.00;;;;;12.05;87.45;102478.72;5117455;27;45322;-80
2024/01/25 01:36:02;;;;;;;;;6.67;3.00;;;;;12.09;87.82;102464.34;5115704;27;60080;-79
2024/01/25 01:38:27;;;;;;;;;4.00;2.00;;;;;12.10;86.36;102468.75;5117075;27;45340;-78
2024/01/25 01:40:52;;;;;;;;;3.00;3.00;;;;;12.10;86.47;102470.56;5116997;27;61585;-79
2024/01/25 01:43:23;;;;;;;;;5.67;4.67;;;;;12.08;86.61;102478.63;5099363;27;46933;-79
2024/01/25 01:45:48;;;;;;;;;3.67;2.33;;;;;12.09;86.81;102476.81;5117085;27;46192;-80
2024/01/25 01:48:14;;;;;;;;;6.00;4.00;;;;;12.08;86.89;102477.75;5116794;27;45324;-79
2024/01/25 01:50:39;;;;;;;;;3.00;3.00;;;;;12.06;86.76;102480.47;5117088;27;45531;-80
2024/01/25 01:53:05;;;;;;;;;4.00;3.33;;;;;12.13;86.41;102481.16;5117694;27;45427;-79
2024/01/25 01:55:31;;;;;;;;;4.67;4.33;;;;;12.17;85.89;102476.59;5116690;27;45429;-79
2024/01/25 01:57:57;;;;;;;;;6.67;6.67;;;;;12.12;86.38;102468.75;5117422;27;45394;-79
2024/01/25 02:00:24;;;;;;;;;4.00;4.00;;;;;12.09;86.64;102483.03;5117266;27;45357;-79
2024/01/25 02:02:50;;;;;;;;;6.67;6.67;;;;;12.07;86.57;102473.34;5118017;27;45647;-80
2024/01/25 02:05:15;;;;;;;;;8.33;6.33;;;;;12.15;86.80;102476.63;5116768;27;45274;-80
2024/01/25 02:07:42;;;;;;;;;5.00;3.00;;;;;12.18;86.63;102468.53;5116854;27;45250;-79
2024/01/25 02:10:08;;;;;;;;;9.33;5.67;;;;;12.10;86.83;102454.56;5117543;27;45472;-79
2024/01/25 02:12:34;;;;;;;;;8.00;4.67;;;;;12.16;86.92;102481.03;5117615;27;45539;-80
2024/01/25 02:14:59;;;;;;;;;3.00;3.00;;;;;12.08;87.68;102477.75;5104271;27;46493;-79
2024/01/25 02:17:25;;;;;;;;;4.67;3.00;;;;;12.06;87.43;102474.25;5116256;27;55878;-79
2024/01/25 02:19:50;;;;;;;;;4.33;3.00;;;;;12.03;87.37;102469.91;5116377;27;45498;-80
2024/01/25 02:22:18;;;;;;;;;9.00;5.00;;;;;12.04;87.65;102460.97;5137965;27;45251;-80
2024/01/25 02:24:44;;;;;;;;;3.33;2.00;;;;;12.07;87.75;102458.19;5127385;27;46748;-79
2024/01/25 02:27:09;;;;;;;;;14.25;13.75;;;;;12.18;87.34;102468.53;5132163;27;45452;-79
2024/01/25 02:29:34;;;;;;;;;4.33;4.33;;;;;12.14;88.05;102461.56;5124597;27;54041;-79
2024/01/25 02:31:59;;;;;;;;;9.00;6.33;;;;;12.18;87.43;102462.31;5115972;27;56037;-79
2024/01/25 02:34:25;;;;;;;;;6.67;5.00;;;;;12.21;87.16;102468.41;5116604;27;45820;-80
2024/01/25 02:36:50;;;;;;;;;8.33;6.33;;;;;12.07;87.79;102468.88;5117206;27;45399;-79
2024/01/25 02:39:16;;;;;;;;;5.33;3.00;;;;;12.12;87.49;102474.06;5116404;27;55316;-79
2024/01/25 02:41:41;;;;;;;;;5.00;5.00;;;;;12.09;87.83;102482.16;5116958;27;45219;-79
2024/01/25 02:44:07;;;;;;;;;2.67;1.67;;;;;12.02;88.52;102472.63;5115840;27;50305;-80
2024/01/25 02:46:32;;;;;;;;;5.00;5.00;;;;;12.01;88.78;102476.22;5115820;27;45521;-77
2024/01/25 02:48:57;;;;;;;;;3.00;3.00;;;;;11.95;88.84;102482.59;5137934;27;45404;-79
2024/01/25 02:51:23;;;;;;;;;5.33;4.00;;;;;11.90;89.95;102484.53;5141673;27;45182;-79
2024/01/25 02:53:48;;;;;;;;;4.00;3.00;;;;;11.80;89.84;102467.97;5120870;27;47132;-79
2024/01/25 02:56:14;;;;;;;;;6.00;3.00;;;;;11.75;89.82;102469.88;5120052;27;45373;-80
2024/01/25 02:58:39;;;;;;;;;6.00;4.67;;;;;11.72;90.31;102469.97;5120306;27;45332;-80
2024/01/25 03:01:04;;;;;;;;;9.00;5.00;;;;;11.72;90.67;102466.44;5119787;27;50240;-80
2024/01/25 03:03:29;;;;;;;;;8.00;5.00;;;;;11.76;90.78;102465.41;5100944;27;50858;-79
2024/01/25 03:05:55;;;;;;;;;3.67;3.67;;;;;11.80;90.41;102467.09;5134168;27;45723;-79
2024/01/25 03:08:20;;;;;;;;;4.33;4.00;;;;;11.83;90.17;102464.31;5101818;27;45458;-82
2024/01/25 03:10:49;;;;;;;;;4.33;4.00;;;;;11.85;90.32;102464.25;5120046;27;45509;-79
2024/01/25 03:13:16;;;;;;;;;4.00;3.67;;;;;11.85;90.09;102456.28;5118638;27;45396;-79
2024/01/25 03:15:41;;;;;;;;;6.67;4.00;;;;;11.82;90.28;102471.44;5116952;27;45495;-79
2024/01/25 03:18:07;;;;;;;;;10.33;6.00;;;;;11.80;90.50;102459.09;5140360;27;45365;-79
2024/01/25 03:20:32;;;;;;;;;7.00;4.67;;;;;11.77;90.71;102462.69;5118823;27;57967;-80
2024/01/25 03:22:57;;;;;;;;;6.67;5.00;;;;;11.77;90.47;102454.69;5118961;27;49945;-79
2024/01/25 03:25:22;;;;;;;;;8.00;6.00;;;;;11.73;90.84;102455.72;5119483;27;45341;-80
2024/01/25 03:27:48;;;;;;;;;6.67;4.67;;;;;11.74;90.79;102462.81;5119633;27;52055;-79
2024/01/25 03:30:13;;;;;;;;;8.67;7.33;;;;;11.76;90.88;102462.75;5119623;27;45437;-80
2024/01/25 03:32:39;;;;;;;;;8.67;6.67;;;;;11.74;90.68;102454.81;5119769;27;46507;-80
2024/01/25 03:35:04;;;;;;;;;6.00;4.00;;;;;11.73;91.14;102455.72;5118984;27;45299;-78
2024/01/25 03:37:30;;;;;;;;;9.33;5.00;;;;;11.77;90.84;102453.81;5119717;27;45324;-80
2024/01/25 03:39:55;;;;;;;;;11.00;8.33;;;;;11.77;90.81;102440.50;5119479;27;45321;-81
2024/01/25 03:42:20;;;;;;;;;5.00;5.00;;;;;11.91;90.12;102448.09;5118604;27;68446;-80
2024/01/25 03:44:47;;;;;;;;;9.67;9.33;;;;;11.86;90.63;102445.59;5118582;27;59430;-80
2024/01/25 03:47:12;;;;;;;;;13.00;6.00;;;;;11.84;90.79;102443.88;5119613;27;45344;-80
2024/01/25 03:49:37;;;;;;;;;9.67;9.67;;;;;11.89;90.05;102447.28;5100124;27;45285;-79
2024/01/25 03:52:04;;;;;;;;;12.33;6.67;;;;;11.91;89.42;102448.09;5100950;27;46073;-80
2024/01/25 03:54:29;;;;;;;;;12.00;9.00;;;;;11.90;88.96;102441.00;5118797;27;45343;-80
2024/01/25 03:56:55;;;;;;;;;5.00;3.67;;;;;11.98;88.40;102449.63;5119470;27;45404;-80
2024/01/25 03:59:20;;;;;;;;;6.33;5.67;;;;;11.90;88.53;102451.69;5117560;27;49498;-81
2024/01/25 04:01:47;;;;;;;;;5.33;4.33;;;;;11.90;88.40;102454.34;5118988;27;52646;-79
2024/01/25 04:04:15;;;;;;;;;10.00;8.00;;;;;11.84;88.44;102438.53;5119061;27;46845;-80
2024/01/25 04:06:45;;;;;;;;;7.67;4.33;;;;;11.96;88.25;102444.34;5118800;27;45294;-79
2024/01/25 04:09:11;;;;;;;;;8.67;8.33;;;;;11.98;87.83;102439.84;5118063;27;45572;-80
2024/01/25 04:11:37;;;;;;;;;9.00;6.67;;;;;11.99;88.43;102438.94;5118997;27;45405;-80
2024/01/25 04:14:03;;;;;;;;;10.00;7.33;;;;;12.00;87.79;102437.13;5126061;27;45523;-80
2024/01/25 04:16:28;;;;;;;;;7.33;6.67;;;;;11.99;88.46;102435.41;5119321;27;45381;-78
2024/01/25 04:18:54;;;;;;;;;11.00;9.00;;;;;11.95;88.45;102433.72;5099727;27;45340;-79
2024/01/25 04:21:19;;;;;;;;;8.00;6.00;;;;;11.99;88.01;102436.28;5118538;27;46062;-80
2024/01/25 04:23:44;;;;;;;;;8.33;6.00;;;;;12.00;88.69;102437.13;5119890;27;45283;-79
2024/01/25 04:26:09;;;;;;;;;13.00;11.00;;;;;11.95;89.11;102437.25;5139621;27;45308;-78
2024/01/25 04:28:35;;;;;;;;;9.00;9.00;;;;;11.86;89.17;102432.25;5118769;27;45565;-79
2024/01/25 04:31:02;;;;;;;;;12.33;10.33;;;;;11.89;89.33;102444.59;5118963;27;45235;-80
2024/01/25 04:33:28;;;;;;;;;13.67;9.33;;;;;11.86;89.06;102436.72;5118243;27;45329;-77
2024/01/25 04:35:53;;;;;;;;;12.33;11.00;;;;;11.88;89.53;102445.53;5118661;27;45299;-80
2024/01/25 04:38:19;;;;;;;;;10.33;10.33;;;;;11.93;89.29;102443.56;5118004;27;57696;-78
2024/01/25 04:40:44;;;;;;;;;13.67;11.67;;;;;11.91;89.20;102442.75;5118090;27;46962;-78
2024/01/25 04:43:11;;;;;;;;;12.67;10.00;;;;;11.83;89.18;102437.66;5118389;27;45397;-79
2024/01/25 04:45:36;;;;;;;;;17.67;13.33;;;;;11.81;89.69;102437.72;5117960;27;45327;-79
2024/01/25 04:48:02;;;;;;;;;20.00;11.00;;;;;11.84;90.45;102441.19;5119147;27;45371;-79
2024/01/25 04:50:27;;;;;;;;;13.00;10.00;;;;;11.87;90.82;102443.78;5118481;27;46058;-80
2024/01/25 04:52:52;;;;;;;;;15.67;11.00;;;;;11.85;90.61;102442.94;5117592;27;65910;-80
2024/01/25 04:55:19;;;;;;;;;17.67;14.00;;;;;11.86;90.67;102439.38;5118236;27;45431;-80
2024/01/25 04:57:44;;;;;;;;;11.67;10.33;;;;;11.86;91.42;102428.72;5117661;27;45251;-80
2024/01/25 05:00:10;;;;;;;;;12.33;9.33;;;;;11.82;90.80;102422.59;5117816;27;45917;-78
2024/01/25 05:02:35;;;;;;;;;12.33;10.33;;;;;11.87;90.67;102422.47;5118001;27;45390;-78
2024/01/25 05:05:01;;;;;;;;;11.33;11.00;;;;;11.88;91.06;102426.88;5116411;27;64583;-80
2024/01/25 05:07:26;;;;;;;;;9.33;9.33;;;;;11.87;90.92;102417.13;5117920;27;45365;-79
2024/01/25 05:09:51;;;;;;;;;13.33;10.00;;;;;11.86;90.62;102407.38;5117896;27;46355;-80
2024/01/25 05:12:16;;;;;;;;;12.67;9.67;;;;;11.88;90.95;102414.41;5116211;27;64046;-79
2024/01/25 05:14:42;;;;;;;;;12.00;12.00;;;;;11.87;91.20;102415.34;5117451;27;45389;-80
2024/01/25 05:17:07;;;;;;;;;22.00;12.33;;;;;11.91;91.61;102413.44;5118106;27;45436;-79
2024/01/25 05:19:32;;;;;;;;;17.33;13.00;;;;;11.91;91.31;102416.09;5117592;27;45515;-81
2024/01/25 05:21:58;;;;;;;;;10.67;9.67;;;;;11.90;90.95;102409.03;5117889;27;45259;-80
2024/01/25 05:24:23;;;;;;;;;13.67;11.00;;;;;11.87;91.35;102403.78;5117801;27;45413;-80
2024/01/25 05:26:49;;;;;;;;;13.00;11.00;;;;;11.82;91.61;102399.47;5118449;27;45353;-79
2024/01/25 05:29:15;;;;;;;;;15.33;12.00;;;;;11.85;91.83;102401.19;5122912;27;46130;-81
2024/01/25 05:31:40;;;;;;;;;13.33;11.67;;;;;11.87;92.13;102402.00;5138508;27;45425;-80
2024/01/25 05:34:06;;;;;;;;;14.00;13.67;;;;;11.88;92.21;102401.09;5129778;27;45217;-79
2024/01/25 05:36:31;;;;;;;;;11.33;10.00;;;;;11.81;91.98;102384.41;5119020;27;45576;-79
2024/01/25 05:38:56;;;;;;;;;9.00;8.33;;;;;11.85;91.38;102392.28;5117505;27;46023;-78
2024/01/25 05:41:22;;;;;;;;;8.33;7.33;;;;;11.84;91.46;102387.88;5116394;27;65868;-81
2024/01/25 05:43:47;;;;;;;;;13.00;11.33;;;;;11.84;91.94;102387.88;5117054;27;45669;-79
2024/01/25 05:46:12;;;;;;;;;10.33;7.67;;;;;11.79;91.69;102388.03;5117078;27;62956;-79
2024/01/25 05:48:38;;;;;;;;;9.00;9.00;;;;;11.72;91.84;102383.81;5117475;27;46205;-78
2024/01/25 05:51:06;;;;;;;;;11.00;10.00;;;;;11.67;91.68;102378.59;5117308;27;54857;-80
2024/01/25 05:53:31;;;;;;;;;11.33;9.00;;;;;11.57;91.99;102371.81;5117383;27;45517;-78
2024/01/25 05:55:57;;;;;;;;;10.67;7.67;;;;;11.64;92.15;102381.38;5105558;27;45389;-78
2024/01/25 05:58:22;;;;;;;;;6.67;6.67;;;;;11.59;92.21;102375.34;5138176;27;45415;-81
2024/01/25 06:00:48;;;;;;;;;5.33;5.33;;;;;11.38;92.00;102336.03;5131385;27;45364;-79
2024/01/25 06:03:15;;;;;;;;;7.67;5.67;;;;;11.61;92.33;102397.47;5099152;27;45591;-79
2024/01/25 06:05:41;;;;;;;;;11.67;6.00;;;;;11.33;92.87;102354.84;5110572;27;45571;-79
2024/01/25 06:08:10;;;;;;;;;10.33;10.00;;;;;11.59;92.30;102385.09;5117168;27;46185;-79
2024/01/25 06:10:35;;;;;;;;;8.67;6.00;;;;;11.28;91.66;102339.91;5118358;27;45470;-79
2024/01/25 06:13:00;;;;;;;;;9.33;8.33;;;;;11.53;91.68;102372.84;5112710;27;45523;-80
2024/01/25 06:15:26;;;;;;;;;10.33;10.00;;;;;11.66;91.80;102400.84;5118315;27;45523;-79
2024/01/25 06:17:51;;;;;;;;;18.25;16.25;;;;;11.61;92.50;102396.59;5098604;27;47435;-80
2024/01/25 06:20:17;;;;;;;;;10.00;10.00;;;;;11.50;92.60;102372.97;5117336;27;45442;-79
2024/01/25 06:22:42;;;;;;;;;12.67;12.33;;;;;11.64;92.44;102397.38;5138858;27;54072;-80
2024/01/25 06:25:08;;;;;;;;;16.33;14.67;;;;;11.65;91.96;102409.78;5124876;27;45496;-79
2024/01/25 06:27:34;;;;;;;;;14.00;12.67;;;;;11.55;92.85;102396.78;5102458;27;47132;-79
2024/01/25 06:30:00;;;;;;;;;12.67;9.67;;;;;11.63;92.88;102406.28;5120021;27;45424;-79
2024/01/25 06:32:25;;;;;;;;;15.67;12.33;;;;;11.66;93.31;102399.97;5120080;27;46002;-79
2024/01/25 06:34:50;;;;;;;;;14.00;12.00;;;;;11.66;93.47;102397.31;5120092;27;46190;-78
2024/01/25 06:37:18;;;;;;;;;12.25;12.25;;;;;11.60;94.03;102395.72;5121183;27;45394;-77
2024/01/25 06:39:44;;;;;;;;;18.00;15.75;;;;;11.61;94.10;102392.16;5128597;27;45258;-77
2024/01/25 06:42:09;;;;;;;;;16.00;13.00;;;;;11.66;94.05;102394.66;5135758;27;45310;-80
2024/01/25 06:44:34;;;;;;;;;17.50;14.25;;;;;11.73;93.22;102396.22;5130130;27;45361;-80
2024/01/25 06:46:59;;;;;;;;;19.00;17.75;;;;;11.78;92.82;102408.47;5131645;27;70853;-80
2024/01/25 06:49:25;;;;;;;;;18.75;15.00;;;;;11.80;92.95;102408.44;5127140;27;56607;-82
2024/01/25 06:51:50;;;;;;;;;22.75;17.50;;;;;11.69;93.07;102390.09;5121809;27;45264;-81
2024/01/25 06:54:15;;;;;;;;;22.00;18.50;;;;;11.70;93.22;102394.50;5131782;27;45324;-81
2024/01/25 06:56:42;;;;;;;;;18.67;17.33;;;;;11.62;94.25;102385.03;5122928;27;69873;-80
2024/01/25 06:59:07;;;;;;;;;23.33;19.67;;;;;11.68;94.26;102383.00;5120530;27;45455;-80
2024/01/25 07:01:32;;;;;;;;;21.00;19.75;;;;;11.71;94.25;102380.25;5124653;27;45847;-80
2024/01/25 07:03:58;;;;;;;;;9.75;9.75;;;;;11.77;93.96;102381.84;5122338;27;45431;-78
2024/01/25 07:06:23;;;;;;;;;22.75;21.00;;;;;11.74;94.08;102377.50;5120900;27;46344;-82
2024/01/25 07:08:49;;;;;;;;;23.67;20.00;;;;;11.82;94.18;102380.81;5123037;27;45446;-82
2024/01/25 07:11:14;;;;;;;;;19.67;18.00;;;;;11.80;93.76;102376.44;5140878;27;45480;-80
2024/01/25 07:13:41;;;;;;;;;24.25;20.00;;;;;11.81;93.66;102372.88;5144831;27;45252;-81
2024/01/25 07:16:06;;;;;;;;;20.75;17.75;;;;;11.72;94.20;102360.69;5125723;27;46797;-81
2024/01/25 07:18:31;;;;;;;;;21.25;19.25;;;;;11.81;93.91;102381.72;5126331;27;57171;-82
2024/01/25 07:20:57;;;;;;;;;17.00;14.25;;;;;11.79;93.74;102375.59;5120908;27;55037;-81
2024/01/25 07:23:22;;;;;;;;;26.75;22.00;;;;;11.72;93.97;102378.47;5122937;27;45511;-81
2024/01/25 07:25:48;;;;;;;;;18.00;16.25;;;;;11.65;94.43;102369.78;5122249;27;45456;-81
2024/01/25 07:28:13;;;;;;;;;20.75;19.50;;;;;11.72;93.77;102384.69;5120528;27;63062;-82
2024/01/25 07:30:39;;;;;;;;;24.00;19.00;;;;;11.73;94.35;102370.44;5119326;27;45386;-83
2024/01/25 07:33:04;;;;;;;;;18.50;14.50;;;;;11.76;94.95;102385.44;5120199;27;45287;-81
2024/01/25 07:35:29;;;;;;;;;22.25;17.25;;;;;11.64;94.21;102373.38;5118101;27;45222;-82
2024/01/25 07:37:55;;;;;;;;;27.75;20.50;;;;;11.69;95.30;102390.09;5120893;27;45328;-81
2024/01/25 07:40:20;;;;;;;;;11.25;11.25;;;;;11.68;95.97;102383.00;5119679;27;55462;-81
2024/01/25 07:42:49;;;;;;;;;22.33;17.67;;;;;11.76;95.12;102380.13;5119813;27;45699;-83
2024/01/25 07:45:14;;;;;;;;;16.67;14.67;;;;;11.86;95.23;102384.25;5119316;27;45420;-82
2024/01/25 07:47:43;;;;;;;;;22.00;20.00;;;;;11.80;94.76;102364.00;5119659;27;45313;-83
2024/01/25 07:50:09;;;;;;;;;25.75;19.00;;;;;11.93;94.34;102366.25;5120140;27;45226;-83
2024/01/25 07:52:35;;;;;;;;;18.75;18.00;;;;;11.99;94.33;102379.41;5119417;27;45263;-82
2024/01/25 07:55:00;;;;;;;;;19.25;19.25;;;;;12.02;94.45;102379.28;5118819;27;58409;-82
2024/01/25 07:57:25;;;;;;;;;19.75;15.75;;;;;11.97;94.38;102362.56;5119694;27;45417;-82
2024/01/25 07:59:50;;;;;;;;;25.33;23.67;;;;;12.13;94.16;102376.25;5121263;27;45517;-81
2024/01/25 08:02:16;;;;;;;;;23.33;19.00;;;;;12.18;93.87;102376.97;5119420;27;45514;-82
2024/01/25 08:04:42;;;;;;;;;20.67;18.33;;;;;12.23;93.04;102375.88;5119410;27;45345;-83
2024/01/25 08:07:08;;;;;;;;;17.67;16.67;;;;;12.31;92.88;102371.16;5119129;27;45458;-82
2024/01/25 08:09:34;;;;;;;;;16.00;15.33;;;;;12.38;92.78;102375.38;5119052;27;45350;-85
2024/01/25 08:11:59;;;;;;;;;19.00;17.00;;;;;12.49;92.95;102376.75;5100550;27;45413;-82
2024/01/25 08:14:24;;;;;;;;;24.25;20.00;;;;;12.51;92.01;102377.59;5118670;27;47352;-82
2024/01/25 08:16:50;;;;;;;;;20.67;20.33;;;;;12.53;91.78;102362.41;5119708;27;45387;-80
2024/01/25 08:19:15;;;;;;;;;18.67;13.67;;;;;12.62;91.53;102378.06;5118628;27;45384;-80
2024/01/25 08:21:40;;;;;;;;;18.00;15.67;;;;;12.71;91.33;102383.06;5119101;27;45460;-79
2024/01/25 08:24:05;;;;;;;;;20.50;19.25;;;;;12.76;91.12;102370.44;5117077;27;54394;-81
2024/01/25 08:26:31;;;;;;;;;16.00;14.00;;;;;12.75;90.58;102363.34;5118633;27;52301;-81
2024/01/25 08:28:56;;;;;;;;;18.00;13.33;;;;;12.83;90.37;102366.59;5118719;27;45234;-83
2024/01/25 08:31:21;;;;;;;;;14.33;14.33;;;;;12.84;89.76;102373.69;5119116;27;45179;-82
2024/01/25 08:33:47;;;;;;;;;20.67;18.33;;;;;12.86;89.92;102361.13;5119124;27;45295;-81
2024/01/25 08:36:19;;;;;;;;;14.00;14.00;;;;;12.92;89.78;102371.59;5120262;27;45314;-82
2024/01/25 08:38:44;;;;;;;;;14.00;14.00;;;;;12.91;89.22;102364.53;5119724;27;45435;-80
2024/01/25 08:41:11;;;;;;;;;16.00;14.00;;;;;12.98;88.87;102365.16;5117510;27;45425;-81
2024/01/25 08:43:36;;;;;;;;;13.00;12.00;;;;;13.04;88.67;102374.75;5118589;27;46127;-81
2024/01/25 08:46:02;;;;;;;;;14.67;11.67;;;;;13.11;88.44;102377.09;5118019;27;45161;-81
2024/01/25 08:48:27;;;;;;;;;22.67;15.67;;;;;13.12;88.24;102384.19;5118779;27;45201;-81
2024/01/25 08:50:54;;;;;;;;;12.67;12.67;;;;;13.09;87.81;102372.75;5118804;27;45186;-79
2024/01/25 08:53:22;;;;;;;;;22.00;18.00;;;;;13.21;87.32;102383.00;5118438;27;46236;-78
2024/01/25 08:55:48;;;;;;;;;15.33;15.33;;;;;13.28;87.77;102387.16;5118432;27;45448;-78
2024/01/25 08:58:13;;;;;;;;;15.00;13.67;;;;;13.32;87.43;102390.63;5118558;27;45346;-79
2024/01/25 09:00:39;;;;;;;;;21.33;17.33;;;;;13.24;87.10;102366.84;5118601;27;45377;-78
2024/01/25 09:03:04;;;;;;;;;16.00;14.67;;;;;13.40;86.38;102393.84;5118724;27;49823;-85
2024/01/25 09:05:31;;;;;;;;;16.33;13.00;;;;;13.34;86.16;102378.94;5117607;27;58033;-80
2024/01/25 09:07:56;;;;;;;;;14.33;14.33;;;;;13.45;86.15;102395.44;5118378;27;45370;-81
2024/01/25 09:10:22;;;;;;;;;12.00;7.00;;;;;13.48;86.48;102397.97;5118662;27;45340;-81
2024/01/25 09:12:47;;;;;;;;;16.00;15.00;;;;;13.50;86.36;102390.75;5099266;27;63818;-80
2024/01/25 09:15:13;;;;;;;;;13.67;12.00;;;;;13.60;85.58;102390.41;5118458;27;45331;-80
2024/01/25 09:17:38;;;;;;;;;17.67;13.00;;;;;13.56;85.61;102382.50;5122663;27;45324;-84
2024/01/25 09:20:05;;;;;;;;;14.33;13.67;;;;;13.63;85.42;102382.25;5126589;27;45309;-80
2024/01/25 09:22:30;;;;;;;;;15.67;14.67;;;;;13.65;85.42;102383.03;5119055;27;46102;-81
2024/01/25 09:24:56;;;;;;;;;14.33;13.00;;;;;13.62;85.31;102370.69;5117853;27;46400;-82
2024/01/25 09:27:21;;;;;;;;;12.00;11.00;;;;;13.69;84.47;102376.66;5118675;27;45503;-83
2024/01/25 09:29:46;;;;;;;;;15.67;15.67;;;;;13.70;84.38;102362.38;5118833;27;45624;-82
2024/01/25 09:32:11;;;;;;;;;15.67;13.00;;;;;13.79;83.80;102373.53;5118665;27;45427;-80
2024/01/25 09:34:38;;;;;;;;;15.00;12.00;;;;;13.89;83.94;102398.09;5101407;27;45440;-84
2024/01/25 09:37:04;;;;;;;;;16.67;14.33;;;;;13.93;83.73;102398.84;5118264;27;45890;-82
2024/01/25 09:39:31;;;;;;;;;12.67;12.67;;;;;13.93;83.49;102393.47;5118037;27;45454;-80
2024/01/25 09:41:57;;;;;;;;;13.33;11.33;;;;;13.93;83.25;102389.00;5117503;27;45379;-80
2024/01/25 09:44:23;;;;;;;;;14.00;14.00;;;;;13.95;83.08;102384.50;5117483;27;45332;-81
2024/01/25 09:46:49;;;;;;;;;12.67;9.00;;;;;13.86;82.60;102358.97;5118016;27;45218;-81
2024/01/25 09:49:14;;;;;;;;;11.33;9.33;;;;;14.09;82.47;102384.78;5117961;27;45482;-83
2024/01/25 09:51:41;;;;;;;;;10.67;10.67;;;;;14.09;81.41;102375.88;5117702;27;45625;-80
2024/01/25 09:54:07;;;;;;;;;8.00;8.00;;;;;14.08;80.98;102372.34;5117108;27;45570;-81
2024/01/25 09:56:34;;;;;;;;;7.33;7.33;;;;;14.13;81.21;102381.03;5117138;27;45378;-81
2024/01/25 09:59:00;;;;;;;;;14.33;13.33;;;;;14.06;81.01;102381.34;5117252;27;45514;-82
2024/01/25 10:01:27;;;;;;;;;7.33;7.33;;;;;13.98;81.49;102383.47;5117429;27;45473;-83
2024/01/25 10:03:56;;;;;;;;;15.00;12.67;;;;;13.94;83.02;102389.91;5099163;27;45893;-81
2024/01/25 10:06:21;;;;;;;;;10.33;10.33;;;;;13.89;83.01;102403.44;5117521;27;45240;-80
2024/01/25 10:08:47;;;;;;;;;16.67;11.67;;;;;13.82;82.70;102401.97;5117696;27;45425;-81
2024/01/25 10:11:12;;;;;;;;;8.67;7.67;;;;;13.79;82.92;102396.72;5117730;27;45463;-82
2024/01/25 10:13:41;;;;;;;;;9.00;9.00;;;;;13.68;82.00;102374.94;5118733;27;45301;-84
2024/01/25 10:16:10;;;;;;;;;18.00;11.00;;;;;13.82;82.75;102407.31;5118822;27;45371;-83
2024/01/25 10:18:35;;;;;;;;;11.00;9.67;;;;;13.86;82.06;102395.56;5117625;27;45234;-83
2024/01/25 10:21:01;;;;;;;;;4.00;4.00;;;;;13.88;82.07;102409.72;5117540;27;45441;-81
2024/01/25 10:23:28;;;;;;;;;12.00;10.33;;;;;13.77;82.24;102399.47;5117793;27;45454;-82
2024/01/25 10:25:54;;;;;;;;;5.00;5.00;;;;;13.82;82.14;102391.28;5117963;27;45322;-81
2024/01/25 10:28:19;;;;;;;;;10.67;8.33;;;;;13.86;81.83;102392.88;5099406;27;45341;-80
2024/01/25 10:30:44;;;;;;;;;7.00;6.00;;;;;14.00;81.99;102406.56;5116697;27;51813;-81
2024/01/25 10:33:10;;;;;;;;;11.67;11.67;;;;;13.97;81.46;102396.00;5098529;27;45601;-81
2024/01/25 10:35:36;;;;;;;;;12.67;8.33;;;;;14.04;81.09;102402.81;5117044;27;45294;-82
2024/01/25 10:38:03;;;;;;;;;8.00;7.00;;;;;14.09;81.24;102400.84;5117168;27;45594;-80
2024/01/25 10:40:29;;;;;;;;;6.00;6.00;;;;;14.03;80.90;102379.66;5116602;27;46503;-81
2024/01/25 10:42:54;;;;;;;;;7.33;7.33;;;;;14.16;80.44;102396.94;5116637;27;45331;-82
2024/01/25 10:45:20;;;;;;;;;7.67;7.67;;;;;14.29;80.57;102393.75;5098630;27;45296;-81
2024/01/25 10:47:48;;;;;;;;;10.67;9.00;;;;;14.40;79.93;102387.00;5117046;27;45225;-81
2024/01/25 10:50:13;;;;;;;;;8.67;8.67;;;;;14.54;79.13;102386.41;5099066;27;47056;-79
2024/01/25 10:52:41;;;;;;;;;10.00;7.00;;;;;14.63;79.03;102380.66;5117414;27;45426;-81
2024/01/25 10:55:10;;;;;;;;;10.33;9.33;;;;;14.68;79.13;102378.63;5117130;27;45430;-79
2024/01/25 10:57:42;;;;;;;;;12.33;11.00;;;;;14.71;79.16;102377.63;5117822;27;45688;-80
2024/01/25 11:00:11;;;;;;;;;11.33;9.00;;;;;14.88;78.09;102379.56;5117176;27;45377;-81
2024/01/25 11:02:39;;;;;;;;;8.00;8.00;;;;;14.93;77.38;102373.03;5116884;27;45488;-81
2024/01/25 11:05:12;;;;;;;;;7.33;7.00;;;;;14.86;77.08;102362.69;5116952;27;45370;-85
2024/01/25 11:07:49;;;;;;;;;8.00;6.00;;;;;14.95;76.80;102370.28;5116917;27;45396;-84
2024/01/25 11:10:21;;;;;;;;;10.33;8.00;;;;;14.87;76.80;102367.97;5119867;27;46051;-84